sensor_id;sensor_type;location;lat;lon;timestamp;pressure;altitude;pressure_sealevel;temperature;humidity
8075;BME280;4080;42.676;23.372;2022-07-31T00:00:09;94956.34;;;22.18;100.00
8075;BME280;4080;42.676;23.372;2022-07-31T00:02:36;94942.63;;;21.95;100.00
8075;BME280;4080;42.676;23.372;2022-07-31T00:05:04;94946.06;;;21.80;100.00
8075;BME280;4080;42.676;23.372;2022-07-31T00:07:31;94943.97;;;21.61;100.00
8075;BME280;4080;42.676;23.372;2022-07-31T00:09:57;94949.91;;;21.43;100.00
8075;BME280;4080;42.676;23.372;2022-07-31T00:12:24;94938.63;;;21.13;100.00
8075;BME280;4080;42.676;23.372;2022-07-31T00:14:51;94929.34;;;20.86;100.00
8075;BME280;4080;42.676;23.372;2022-07-31T00:17:20;94945.88;;;21.00;100.00
8075;BME280;4080;42.676;23.372;2022-07-31T00:19:46;94884.13;;;20.84;100.00
8075;BME280;4080;42.676;23.372;2022-07-31T00:22:13;94950.47;;;21.36;100.00
8075;BME280;4080;42.676;23.372;2022-07-31T00:24:40;94955.63;;;21.41;100.00
8075;BME280;4080;42.676;23.372;2022-07-31T00:27:07;94965.00;;;21.59;100.00
8075;BME280;4080;42.676;23.372;2022-07-31T00:29:35;94963.41;;;21.70;100.00
8075;BME280;4080;42.676;23.372;2022-07-31T00:32:02;94975.84;;;21.63;100.00
8075;BME280;4080;42.676;23.372;2022-07-31T00:34:30;94962.75;;;21.74;100.00
8075;BME280;4080;42.676;23.372;2022-07-31T00:36:57;94971.94;;;22.00;100.00
8075;BME280;4080;42.676;23.372;2022-07-31T00:39:24;94964.94;;;22.24;100.00
8075;BME280;4080;42.676;23.372;2022-07-31T00:41:51;94980.00;;;22.41;100.00
8075;BME280;4080;42.676;23.372;2022-07-31T00:44:19;94906.16;;;22.07;100.00
8075;BME280;4080;42.676;23.372;2022-07-31T00:46:46;94986.63;;;22.59;100.00
8075;BME280;4080;42.676;23.372;2022-07-31T00:49:13;94976.84;;;22.67;100.00
8075;BME280;4080;42.676;23.372;2022-07-31T00:51:42;94961.72;;;22.62;100.00
8075;BME280;4080;42.676;23.372;2022-07-31T00:54:09;94965.38;;;22.26;100.00
8075;BME280;4080;42.676;23.372;2022-07-31T00:56:36;94953.38;;;21.95;100.00
8075;BME280;4080;42.676;23.372;2022-07-31T00:59:03;94956.06;;;22.08;100.00
8075;BME280;4080;42.676;23.372;2022-07-31T01:01:30;94984.50;;;22.37;100.00
8075;BME280;4080;42.676;23.372;2022-07-31T01:03:57;94990.00;;;22.56;100.00
8075;BME280;4080;42.676;23.372;2022-07-31T01:06:24;94980.66;;;22.66;100.00
8075;BME280;4080;42.676;23.372;2022-07-31T01:08:52;94979.97;;;22.69;100.00
8075;BME280;4080;42.676;23.372;2022-07-31T01:11:23;94977.47;;;22.76;100.00
8075;BME280;4080;42.676;23.372;2022-07-31T01:13:55;94998.16;;;22.87;100.00
8075;BME280;4080;42.676;23.372;2022-07-31T01:16:25;94987.88;;;22.77;100.00
8075;BME280;4080;42.676;23.372;2022-07-31T01:18:55;95002.72;;;22.71;100.00
8075;BME280;4080;42.676;23.372;2022-07-31T01:21:26;94995.13;;;22.61;100.00
8075;BME280;4080;42.676;23.372;2022-07-31T01:24:22;94990.34;;;22.54;100.00
8075;BME280;4080;42.676;23.372;2022-07-31T01:26:58;94961.53;;;22.39;100.00
8075;BME280;4080;42.676;23.372;2022-07-31T01:29:31;94979.09;;;22.65;100.00
8075;BME280;4080;42.676;23.372;2022-07-31T01:32:03;94975.09;;;22.58;100.00
8075;BME280;4080;42.676;23.372;2022-07-31T01:34:37;94988.28;;;22.63;100.00
8075;BME280;4080;42.676;23.372;2022-07-31T01:37:11;94995.53;;;22.47;100.00
8075;BME280;4080;42.676;23.372;2022-07-31T01:39:42;94994.94;;;22.26;100.00
8075;BME280;4080;42.676;23.372;2022-07-31T01:42:12;94992.56;;;22.09;100.00
8075;BME280;4080;42.676;23.372;2022-07-31T01:44:42;94963.28;;;21.79;100.00
8075;BME280;4080;42.676;23.372;2022-07-31T01:47:11;94987.69;;;21.74;100.00
8075;BME280;4080;42.676;23.372;2022-07-31T01:49:40;94970.41;;;21.47;100.00
8075;BME280;4080;42.676;23.372;2022-07-31T01:52:08;94972.72;;;21.36;100.00
8075;BME280;4080;42.676;23.372;2022-07-31T01:54:37;94973.38;;;21.21;100.00
8075;BME280;4080;42.676;23.372;2022-07-31T01:57:06;94940.31;;;20.93;100.00
8075;BME280;4080;42.676;23.372;2022-07-31T01:59:35;94954.59;;;21.09;100.00
8075;BME280;4080;42.676;23.372;2022-07-31T02:02:04;94965.56;;;21.16;100.00
8075;BME280;4080;42.676;23.372;2022-07-31T02:04:31;94971.13;;;21.11;100.00
8075;BME280;4080;42.676;23.372;2022-07-31T02:07:00;94916.16;;;20.68;100.00
8075;BME280;4080;42.676;23.372;2022-07-31T02:09:29;94980.41;;;21.01;100.00
8075;BME280;4080;42.676;23.372;2022-07-31T02:11:58;94974.50;;;21.08;100.00
8075;BME280;4080;42.676;23.372;2022-07-31T02:14:26;94983.00;;;21.22;100.00
8075;BME280;4080;42.676;23.372;2022-07-31T02:16:54;94971.63;;;21.37;100.00
8075;BME280;4080;42.676;23.372;2022-07-31T02:19:23;94981.78;;;21.56;100.00
8075;BME280;4080;42.676;23.372;2022-07-31T02:21:51;94961.78;;;21.29;100.00
8075;BME280;4080;42.676;23.372;2022-07-31T02:24:17;94985.25;;;21.32;100.00
8075;BME280;4080;42.676;23.372;2022-07-31T02:26:45;94978.66;;;21.18;100.00
8075;BME280;4080;42.676;23.372;2022-07-31T02:29:13;94979.84;;;21.08;100.00
8075;BME280;4080;42.676;23.372;2022-07-31T02:31:42;94967.44;;;20.91;100.00
8075;BME280;4080;42.676;23.372;2022-07-31T02:34:11;94959.25;;;20.75;100.00
8075;BME280;4080;42.676;23.372;2022-07-31T02:36:40;94981.94;;;20.78;100.00
8075;BME280;4080;42.676;23.372;2022-07-31T02:39:08;94988.50;;;20.68;100.00
8075;BME280;4080;42.676;23.372;2022-07-31T02:41:38;94987.94;;;20.63;100.00
8075;BME280;4080;42.676;23.372;2022-07-31T02:44:06;94989.59;;;20.55;100.00
8075;BME280;4080;42.676;23.372;2022-07-31T02:46:35;94961.94;;;20.30;100.00
8075;BME280;4080;42.676;23.372;2022-07-31T02:49:02;94989.22;;;20.44;100.00
8075;BME280;4080;42.676;23.372;2022-07-31T02:51:30;94989.09;;;20.41;100.00
8075;BME280;4080;42.676;23.372;2022-07-31T02:53:58;94970.28;;;20.29;100.00
8075;BME280;4080;42.676;23.372;2022-07-31T02:56:27;94988.38;;;20.32;100.00
8075;BME280;4080;42.676;23.372;2022-07-31T02:58:55;94986.69;;;20.27;100.00
8075;BME280;4080;42.676;23.372;2022-07-31T03:01:22;94983.03;;;20.32;100.00
8075;BME280;4080;42.676;23.372;2022-07-31T03:03:49;94991.97;;;20.36;100.00
8075;BME280;4080;42.676;23.372;2022-07-31T03:06:16;94988.16;;;20.37;100.00
8075;BME280;4080;42.676;23.372;2022-07-31T03:08:43;94982.03;;;20.36;100.00
8075;BME280;4080;42.676;23.372;2022-07-31T03:11:11;94984.53;;;20.41;100.00
8075;BME280;4080;42.676;23.372;2022-07-31T03:13:39;94977.59;;;20.40;100.00
8075;BME280;4080;42.676;23.372;2022-07-31T03:16:08;94982.31;;;20.43;100.00
8075;BME280;4080;42.676;23.372;2022-07-31T03:18:36;94957.09;;;20.24;100.00
8075;BME280;4080;42.676;23.372;2022-07-31T03:21:04;94978.19;;;20.46;100.00
8075;BME280;4080;42.676;23.372;2022-07-31T03:23:31;94997.66;;;20.67;100.00
8075;BME280;4080;42.676;23.372;2022-07-31T03:26:00;94991.44;;;20.75;100.00
8075;BME280;4080;42.676;23.372;2022-07-31T03:28:29;95004.31;;;20.82;100.00
8075;BME280;4080;42.676;23.372;2022-07-31T03:30:56;95002.59;;;20.77;100.00
8075;BME280;4080;42.676;23.372;2022-07-31T03:33:23;94997.19;;;20.53;100.00
8075;BME280;4080;42.676;23.372;2022-07-31T03:35:50;94998.88;;;20.37;100.00
8075;BME280;4080;42.676;23.372;2022-07-31T03:38:17;95007.78;;;20.29;100.00
8075;BME280;4080;42.676;23.372;2022-07-31T03:40:44;94966.47;;;19.97;100.00
8075;BME280;4080;42.676;23.372;2022-07-31T03:43:11;95015.09;;;20.20;100.00
8075;BME280;4080;42.676;23.372;2022-07-31T03:45:41;95011.72;;;20.10;100.00
8075;BME280;4080;42.676;23.372;2022-07-31T03:48:09;94983.25;;;19.85;100.00
8075;BME280;4080;42.676;23.372;2022-07-31T03:50:36;95023.41;;;20.06;100.00
8075;BME280;4080;42.676;23.372;2022-07-31T03:53:05;94995.47;;;19.95;100.00
8075;BME280;4080;42.676;23.372;2022-07-31T03:55:32;94996.06;;;20.00;100.00
8075;BME280;4080;42.676;23.372;2022-07-31T03:58:02;95023.47;;;20.18;100.00
8075;BME280;4080;42.676;23.372;2022-07-31T04:00:29;95014.97;;;20.16;100.00
8075;BME280;4080;42.676;23.372;2022-07-31T04:03:04;95018.19;;;20.09;100.00
8075;BME280;4080;42.676;23.372;2022-07-31T04:05:31;95023.09;;;20.07;100.00
8075;BME280;4080;42.676;23.372;2022-07-31T04:07:58;94999.72;;;19.96;100.00
8075;BME280;4080;42.676;23.372;2022-07-31T04:10:25;95032.94;;;20.15;100.00
8075;BME280;4080;42.676;23.372;2022-07-31T04:12:52;95028.78;;;20.27;100.00
8075;BME280;4080;42.676;23.372;2022-07-31T04:15:19;95022.16;;;20.24;100.00
8075;BME280;4080;42.676;23.372;2022-07-31T04:17:46;95026.78;;;20.36;100.00
8075;BME280;4080;42.676;23.372;2022-07-31T04:20:14;95013.72;;;20.34;100.00
8075;BME280;4080;42.676;23.372;2022-07-31T04:22:41;95031.31;;;20.44;100.00
8075;BME280;4080;42.676;23.372;2022-07-31T04:25:08;95014.97;;;20.58;100.00
8075;BME280;4080;42.676;23.372;2022-07-31T04:27:35;95018.66;;;20.65;100.00
8075;BME280;4080;42.676;23.372;2022-07-31T04:30:02;95015.09;;;20.73;100.00
8075;BME280;4080;42.676;23.372;2022-07-31T04:32:29;95020.63;;;20.89;100.00
8075;BME280;4080;42.676;23.372;2022-07-31T04:34:56;95009.34;;;20.96;100.00
8075;BME280;4080;42.676;23.372;2022-07-31T04:37:24;95022.97;;;21.03;100.00
8075;BME280;4080;42.676;23.372;2022-07-31T04:39:51;95011.03;;;21.00;100.00
8075;BME280;4080;42.676;23.372;2022-07-31T04:42:18;95009.81;;;21.10;100.00
8075;BME280;4080;42.676;23.372;2022-07-31T04:44:45;95005.16;;;21.31;100.00
8075;BME280;4080;42.676;23.372;2022-07-31T04:47:12;94990.28;;;21.58;100.00
8075;BME280;4080;42.676;23.372;2022-07-31T04:49:39;95009.47;;;22.09;100.00
8075;BME280;4080;42.676;23.372;2022-07-31T04:52:06;95005.25;;;22.24;100.00
8075;BME280;4080;42.676;23.372;2022-07-31T04:54:36;95009.56;;;22.41;100.00
8075;BME280;4080;42.676;23.372;2022-07-31T04:57:03;95006.13;;;22.28;100.00
8075;BME280;4080;42.676;23.372;2022-07-31T04:59:31;95029.72;;;22.35;100.00
8075;BME280;4080;42.676;23.372;2022-07-31T05:01:58;95024.25;;;22.31;100.00
8075;BME280;4080;42.676;23.372;2022-07-31T05:04:25;95029.09;;;22.25;100.00
8075;BME280;4080;42.676;23.372;2022-07-31T05:06:53;95039.47;;;22.39;100.00
8075;BME280;4080;42.676;23.372;2022-07-31T05:09:21;95031.50;;;22.43;100.00
8075;BME280;4080;42.676;23.372;2022-07-31T05:11:50;95035.22;;;22.38;100.00
8075;BME280;4080;42.676;23.372;2022-07-31T05:14:19;95038.81;;;22.30;100.00
8075;BME280;4080;42.676;23.372;2022-07-31T05:16:47;95035.91;;;22.35;100.00
8075;BME280;4080;42.676;23.372;2022-07-31T05:19:14;95036.34;;;22.37;100.00
8075;BME280;4080;42.676;23.372;2022-07-31T05:21:41;95035.44;;;22.33;100.00
8075;BME280;4080;42.676;23.372;2022-07-31T05:24:08;95028.75;;;22.27;100.00
8075;BME280;4080;42.676;23.372;2022-07-31T05:26:35;95036.22;;;22.34;100.00
8075;BME280;4080;42.676;23.372;2022-07-31T05:29:04;95033.41;;;22.42;100.00
8075;BME280;4080;42.676;23.372;2022-07-31T05:31:31;95040.25;;;22.40;100.00
8075;BME280;4080;42.676;23.372;2022-07-31T05:33:58;95036.81;;;22.27;100.00
8075;BME280;4080;42.676;23.372;2022-07-31T05:36:25;95031.88;;;22.29;100.00
8075;BME280;4080;42.676;23.372;2022-07-31T05:38:52;95029.88;;;22.26;100.00
8075;BME280;4080;42.676;23.372;2022-07-31T05:41:19;95027.44;;;22.21;100.00
8075;BME280;4080;42.676;23.372;2022-07-31T05:43:46;95027.69;;;22.16;100.00
8075;BME280;4080;42.676;23.372;2022-07-31T05:46:14;95029.69;;;22.19;100.00
8075;BME280;4080;42.676;23.372;2022-07-31T05:48:42;95028.47;;;22.16;100.00
8075;BME280;4080;42.676;23.372;2022-07-31T05:51:09;95012.00;;;22.18;100.00
8075;BME280;4080;42.676;23.372;2022-07-31T05:53:37;95032.31;;;22.31;100.00
8075;BME280;4080;42.676;23.372;2022-07-31T05:56:05;95039.06;;;22.25;100.00
8075;BME280;4080;42.676;23.372;2022-07-31T05:58:32;95039.75;;;22.22;100.00
8075;BME280;4080;42.676;23.372;2022-07-31T06:00:59;95039.31;;;22.20;100.00
8075;BME280;4080;42.676;23.372;2022-07-31T06:03:28;95026.56;;;22.17;100.00
8075;BME280;4080;42.676;23.372;2022-07-31T06:06:00;95026.41;;;22.25;100.00
8075;BME280;4080;42.676;23.372;2022-07-31T06:08:27;95029.72;;;22.35;100.00
8075;BME280;4080;42.676;23.372;2022-07-31T06:10:54;95040.53;;;22.50;100.00
8075;BME280;4080;42.676;23.372;2022-07-31T06:13:23;95013.47;;;22.43;100.00
8075;BME280;4080;42.676;23.372;2022-07-31T06:15:49;95040.69;;;22.70;100.00
8075;BME280;4080;42.676;23.372;2022-07-31T06:18:16;95036.22;;;22.61;100.00
8075;BME280;4080;42.676;23.372;2022-07-31T06:20:45;95039.81;;;22.66;100.00
8075;BME280;4080;42.676;23.372;2022-07-31T06:23:11;95044.78;;;23.07;100.00
8075;BME280;4080;42.676;23.372;2022-07-31T06:25:38;95046.34;;;23.71;100.00
8075;BME280;4080;42.676;23.372;2022-07-31T06:28:05;95039.97;;;24.30;100.00
8075;BME280;4080;42.676;23.372;2022-07-31T06:30:32;95012.13;;;24.65;100.00
8075;BME280;4080;42.676;23.372;2022-07-31T06:32:59;95033.31;;;25.28;100.00
8075;BME280;4080;42.676;23.372;2022-07-31T06:35:26;95024.97;;;25.36;100.00
8075;BME280;4080;42.676;23.372;2022-07-31T06:37:54;95035.28;;;25.77;100.00
8075;BME280;4080;42.676;23.372;2022-07-31T06:40:21;95044.72;;;26.16;100.00
8075;BME280;4080;42.676;23.372;2022-07-31T06:42:47;95042.09;;;26.50;100.00
8075;BME280;4080;42.676;23.372;2022-07-31T06:45:14;95041.53;;;26.67;100.00
8075;BME280;4080;42.676;23.372;2022-07-31T06:47:41;95039.75;;;26.82;100.00
8075;BME280;4080;42.676;23.372;2022-07-31T06:50:08;95007.53;;;26.70;100.00
8075;BME280;4080;42.676;23.372;2022-07-31T06:52:35;95040.19;;;26.87;100.00
8075;BME280;4080;42.676;23.372;2022-07-31T06:55:05;95028.72;;;26.64;100.00
8075;BME280;4080;42.676;23.372;2022-07-31T06:57:32;95031.59;;;26.45;100.00
8075;BME280;4080;42.676;23.372;2022-07-31T06:59:59;95032.03;;;26.20;100.00
8075;BME280;4080;42.676;23.372;2022-07-31T07:02:25;95040.16;;;25.94;100.00
8075;BME280;4080;42.676;23.372;2022-07-31T07:04:52;95047.41;;;25.63;100.00
8075;BME280;4080;42.676;23.372;2022-07-31T07:07:19;95043.41;;;25.31;100.00
8075;BME280;4080;42.676;23.372;2022-07-31T07:09:46;95048.56;;;25.17;100.00
8075;BME280;4080;42.676;23.372;2022-07-31T07:12:14;95035.50;;;25.19;100.00
8075;BME280;4080;42.676;23.372;2022-07-31T07:14:41;95047.41;;;25.41;100.00
8075;BME280;4080;42.676;23.372;2022-07-31T07:17:07;95052.00;;;25.86;100.00
8075;BME280;4080;42.676;23.372;2022-07-31T07:19:38;95025.19;;;26.00;100.00
8075;BME280;4080;42.676;23.372;2022-07-31T07:22:05;95055.94;;;26.45;100.00
8075;BME280;4080;42.676;23.372;2022-07-31T07:24:32;95050.94;;;26.80;100.00
8075;BME280;4080;42.676;23.372;2022-07-31T07:26:59;95056.03;;;26.89;100.00
8075;BME280;4080;42.676;23.372;2022-07-31T07:29:27;95037.50;;;26.91;100.00
8075;BME280;4080;42.676;23.372;2022-07-31T07:31:54;95056.16;;;27.33;100.00
8075;BME280;4080;42.676;23.372;2022-07-31T07:34:21;95057.09;;;27.55;100.00
8075;BME280;4080;42.676;23.372;2022-07-31T07:36:48;95061.56;;;27.77;100.00
8075;BME280;4080;42.676;23.372;2022-07-31T07:39:14;95068.31;;;28.05;100.00
8075;BME280;4080;42.676;23.372;2022-07-31T07:41:41;95062.31;;;28.33;100.00
8075;BME280;4080;42.676;23.372;2022-07-31T07:44:08;95065.84;;;28.40;100.00
8075;BME280;4080;42.676;23.372;2022-07-31T07:46:36;95062.81;;;28.56;100.00
8075;BME280;4080;42.676;23.372;2022-07-31T07:49:04;95018.66;;;28.63;100.00
8075;BME280;4080;42.676;23.372;2022-07-31T07:51:31;95052.53;;;29.08;100.00
8075;BME280;4080;42.676;23.372;2022-07-31T07:53:58;95051.28;;;28.81;100.00
8075;BME280;4080;42.676;23.372;2022-07-31T07:56:25;95044.50;;;28.32;100.00
8075;BME280;4080;42.676;23.372;2022-07-31T07:58:52;95059.78;;;28.03;100.00
8075;BME280;4080;42.676;23.372;2022-07-31T08:01:20;95054.56;;;27.76;100.00
8075;BME280;4080;42.676;23.372;2022-07-31T08:03:48;95048.44;;;27.39;100.00
8075;BME280;4080;42.676;23.372;2022-07-31T08:06:14;95051.94;;;26.99;100.00
8075;BME280;4080;42.676;23.372;2022-07-31T08:08:41;95045.97;;;26.86;100.00
8075;BME280;4080;42.676;23.372;2022-07-31T08:11:08;95045.03;;;27.05;100.00
8075;BME280;4080;42.676;23.372;2022-07-31T08:13:35;95058.44;;;27.31;100.00
8075;BME280;4080;42.676;23.372;2022-07-31T08:16:02;95055.84;;;27.45;100.00
8075;BME280;4080;42.676;23.372;2022-07-31T08:18:29;95064.44;;;27.54;100.00
8075;BME280;4080;42.676;23.372;2022-07-31T08:20:57;95068.94;;;27.36;100.00
8075;BME280;4080;42.676;23.372;2022-07-31T08:23:24;95076.91;;;27.22;100.00
8075;BME280;4080;42.676;23.372;2022-07-31T08:25:51;95070.25;;;27.12;100.00
8075;BME280;4080;42.676;23.372;2022-07-31T08:28:18;95065.19;;;27.07;100.00
8075;BME280;4080;42.676;23.372;2022-07-31T08:30:44;95065.94;;;27.08;100.00
8075;BME280;4080;42.676;23.372;2022-07-31T08:33:11;95069.78;;;27.44;100.00
8075;BME280;4080;42.676;23.372;2022-07-31T08:35:38;95066.72;;;27.97;100.00
8075;BME280;4080;42.676;23.372;2022-07-31T08:38:06;95066.97;;;28.36;100.00
8075;BME280;4080;42.676;23.372;2022-07-31T08:40:33;95071.78;;;28.74;100.00
8075;BME280;4080;42.676;23.372;2022-07-31T08:43:03;95077.78;;;29.09;100.00
8075;BME280;4080;42.676;23.372;2022-07-31T08:45:30;95076.63;;;29.10;100.00
8075;BME280;4080;42.676;23.372;2022-07-31T08:47:58;95068.34;;;28.81;100.00
8075;BME280;4080;42.676;23.372;2022-07-31T08:50:27;95080.44;;;28.98;100.00
8075;BME280;4080;42.676;23.372;2022-07-31T08:52:55;95077.75;;;29.05;100.00
8075;BME280;4080;42.676;23.372;2022-07-31T08:55:24;95078.88;;;28.90;100.00
8075;BME280;4080;42.676;23.372;2022-07-31T08:57:52;95084.59;;;28.70;100.00
8075;BME280;4080;42.676;23.372;2022-07-31T09:00:19;95081.84;;;28.63;100.00
8075;BME280;4080;42.676;23.372;2022-07-31T09:02:47;95074.84;;;28.59;100.00
8075;BME280;4080;42.676;23.372;2022-07-31T09:05:14;95078.06;;;28.82;100.00
8075;BME280;4080;42.676;23.372;2022-07-31T09:07:41;95080.50;;;29.19;100.00
8075;BME280;4080;42.676;23.372;2022-07-31T09:29:03;95055.50;;;27.50;100.00
8075;BME280;4080;42.676;23.372;2022-07-31T09:31:33;95061.66;;;27.47;100.00
8075;BME280;4080;42.676;23.372;2022-07-31T09:34:00;95045.41;;;27.47;100.00
8075;BME280;4080;42.676;23.372;2022-07-31T09:36:27;95059.53;;;27.64;100.00
8075;BME280;4080;42.676;23.372;2022-07-31T09:38:54;95054.50;;;27.66;100.00
8075;BME280;4080;42.676;23.372;2022-07-31T09:41:22;95056.47;;;27.72;100.00
8075;BME280;4080;42.676;23.372;2022-07-31T09:43:53;95040.09;;;27.58;100.00
8075;BME280;4080;42.676;23.372;2022-07-31T09:46:21;95045.25;;;27.70;100.00
8075;BME280;4080;42.676;23.372;2022-07-31T09:48:49;95032.41;;;28.19;100.00
8075;BME280;4080;42.676;23.372;2022-07-31T09:51:17;95044.69;;;28.82;100.00
8075;BME280;4080;42.676;23.372;2022-07-31T09:53:44;95047.09;;;28.97;98.63
8075;BME280;4080;42.676;23.372;2022-07-31T09:56:12;95051.34;;;29.02;99.77
8075;BME280;4080;42.676;23.372;2022-07-31T09:58:40;95037.03;;;29.19;98.06
8075;BME280;4080;42.676;23.372;2022-07-31T10:01:08;95053.34;;;29.16;93.73
8075;BME280;4080;42.676;23.372;2022-07-31T10:03:39;95023.78;;;28.86;92.84
8075;BME280;4080;42.676;23.372;2022-07-31T10:06:08;95014.41;;;28.76;95.62
8075;BME280;4080;42.676;23.372;2022-07-31T10:08:38;95039.38;;;29.21;95.19
8075;BME280;4080;42.676;23.372;2022-07-31T10:11:07;95039.03;;;29.47;93.91
8075;BME280;4080;42.676;23.372;2022-07-31T10:13:38;95028.94;;;29.48;93.98
8075;BME280;4080;42.676;23.372;2022-07-31T10:16:06;95044.09;;;29.56;90.12
8075;BME280;4080;42.676;23.372;2022-07-31T10:18:40;95040.97;;;29.40;90.37
8075;BME280;4080;42.676;23.372;2022-07-31T10:21:10;95036.31;;;29.51;89.25
8075;BME280;4080;42.676;23.372;2022-07-31T10:23:39;94997.47;;;29.29;90.90
8075;BME280;4080;42.676;23.372;2022-07-31T10:26:07;95035.16;;;29.62;87.14
8075;BME280;4080;42.676;23.372;2022-07-31T10:28:36;95005.22;;;29.34;84.95
8075;BME280;4080;42.676;23.372;2022-07-31T10:31:03;94995.53;;;29.44;86.57
8075;BME280;4080;42.676;23.372;2022-07-31T10:33:31;95037.09;;;29.83;85.94
8075;BME280;4080;42.676;23.372;2022-07-31T10:36:04;95025.41;;;30.01;81.77
8075;BME280;4080;42.676;23.372;2022-07-31T10:38:35;95024.25;;;30.12;78.89
8075;BME280;4080;42.676;23.372;2022-07-31T10:41:11;95004.06;;;30.03;78.87
8075;BME280;4080;42.676;23.372;2022-07-31T10:43:45;95009.84;;;30.12;80.37
8075;BME280;4080;42.676;23.372;2022-07-31T10:46:13;95005.16;;;30.23;77.69
8075;BME280;4080;42.676;23.372;2022-07-31T10:48:49;95004.41;;;29.97;78.92
8075;BME280;4080;42.676;23.372;2022-07-31T10:51:18;94995.50;;;29.86;80.97
8075;BME280;4080;42.676;23.372;2022-07-31T10:53:52;95004.41;;;29.97;82.76
8075;BME280;4080;42.676;23.372;2022-07-31T10:56:20;95004.84;;;29.75;80.54
8075;BME280;4080;42.676;23.372;2022-07-31T10:58:47;94976.50;;;29.65;82.49
8075;BME280;4080;42.676;23.372;2022-07-31T11:01:15;95006.00;;;29.66;82.20
8075;BME280;4080;42.676;23.372;2022-07-31T11:03:43;94964.09;;;29.39;83.11
8075;BME280;4080;42.676;23.372;2022-07-31T11:06:12;95002.91;;;29.61;82.59
8075;BME280;4080;42.676;23.372;2022-07-31T11:08:42;94997.09;;;29.70;80.98
8075;BME280;4080;42.676;23.372;2022-07-31T11:11:10;94978.06;;;29.55;81.38
8075;BME280;4080;42.676;23.372;2022-07-31T11:13:47;94996.69;;;29.75;79.75
8075;BME280;4080;42.676;23.372;2022-07-31T11:16:15;94996.69;;;29.78;79.65
8075;BME280;4080;42.676;23.372;2022-07-31T11:18:42;94956.31;;;29.62;79.04
8075;BME280;4080;42.676;23.372;2022-07-31T11:21:11;94988.09;;;29.97;80.32
8075;BME280;4080;42.676;23.372;2022-07-31T11:23:38;94993.91;;;30.14;79.55
8075;BME280;4080;42.676;23.372;2022-07-31T11:26:07;94988.06;;;30.19;72.09
8075;BME280;4080;42.676;23.372;2022-07-31T11:28:34;94976.44;;;29.97;73.27
8075;BME280;4080;42.676;23.372;2022-07-31T11:31:03;94924.50;;;29.27;78.58
8075;BME280;4080;42.676;23.372;2022-07-31T11:33:34;94983.50;;;29.20;83.79
8075;BME280;4080;42.676;23.372;2022-07-31T11:36:06;94961.00;;;29.16;83.48
8075;BME280;4080;42.676;23.372;2022-07-31T11:38:34;94976.13;;;29.42;81.70
8075;BME280;4080;42.676;23.372;2022-07-31T11:41:01;94974.19;;;29.53;77.80
8075;BME280;4080;42.676;23.372;2022-07-31T11:43:30;94976.91;;;29.63;76.47
8075;BME280;4080;42.676;23.372;2022-07-31T11:45:59;94977.69;;;29.75;76.63
8075;BME280;4080;42.676;23.372;2022-07-31T11:48:26;94971.81;;;29.87;75.42
8075;BME280;4080;42.676;23.372;2022-07-31T11:50:56;94951.22;;;29.89;77.13
8075;BME280;4080;42.676;23.372;2022-07-31T11:53:23;94967.13;;;30.02;78.40
8075;BME280;4080;42.676;23.372;2022-07-31T11:55:51;94958.56;;;30.14;79.16
8075;BME280;4080;42.676;23.372;2022-07-31T11:58:20;94945.00;;;30.07;81.16
8075;BME280;4080;42.676;23.372;2022-07-31T12:00:53;94947.31;;;29.94;80.19
8075;BME280;4080;42.676;23.372;2022-07-31T12:03:22;94954.69;;;30.01;79.62
8075;BME280;4080;42.676;23.372;2022-07-31T12:05:50;94939.16;;;30.05;81.04
8075;BME280;4080;42.676;23.372;2022-07-31T12:08:18;94951.13;;;30.25;79.18
8075;BME280;4080;42.676;23.372;2022-07-31T12:10:45;94959.34;;;30.14;79.46
8075;BME280;4080;42.676;23.372;2022-07-31T12:13:14;94945.72;;;30.14;79.51
8075;BME280;4080;42.676;23.372;2022-07-31T12:15:52;94939.94;;;30.02;76.99
8075;BME280;4080;42.676;23.372;2022-07-31T12:18:21;94893.41;;;29.64;77.09
8075;BME280;4080;42.676;23.372;2022-07-31T12:20:51;94945.03;;;29.82;78.57
8075;BME280;4080;42.676;23.372;2022-07-31T12:23:18;94948.91;;;29.81;77.82
8075;BME280;4080;42.676;23.372;2022-07-31T12:25:46;94935.72;;;29.68;77.78
8075;BME280;4080;42.676;23.372;2022-07-31T12:28:13;94860.09;;;29.21;78.26
8075;BME280;4080;42.676;23.372;2022-07-31T12:30:40;94926.81;;;29.72;77.59
8075;BME280;4080;42.676;23.372;2022-07-31T12:33:09;94919.03;;;29.77;77.92
8075;BME280;4080;42.676;23.372;2022-07-31T12:35:39;94909.72;;;29.67;74.72
8075;BME280;4080;42.676;23.372;2022-07-31T12:38:06;94908.19;;;29.52;73.38
8075;BME280;4080;42.676;23.372;2022-07-31T12:40:33;94910.53;;;29.29;72.16
8075;BME280;4080;42.676;23.372;2022-07-31T12:43:00;94909.78;;;29.18;72.77
8075;BME280;4080;42.676;23.372;2022-07-31T12:45:32;94904.31;;;29.07;74.32
8075;BME280;4080;42.676;23.372;2022-07-31T12:47:59;94879.13;;;28.89;74.20
8075;BME280;4080;42.676;23.372;2022-07-31T12:50:28;94902.78;;;29.06;75.25
8075;BME280;4080;42.676;23.372;2022-07-31T12:52:57;94904.72;;;29.13;75.27
8075;BME280;4080;42.676;23.372;2022-07-31T12:55:25;94900.81;;;29.28;73.63
8075;BME280;4080;42.676;23.372;2022-07-31T12:57:53;94909.38;;;29.48;73.70
8075;BME280;4080;42.676;23.372;2022-07-31T13:00:20;94886.47;;;29.52;72.41
8075;BME280;4080;42.676;23.372;2022-07-31T13:02:48;94900.78;;;29.67;73.25
8075;BME280;4080;42.676;23.372;2022-07-31T13:05:15;94888.38;;;29.62;74.04
8075;BME280;4080;42.676;23.372;2022-07-31T13:07:43;94889.56;;;29.44;75.71
8075;BME280;4080;42.676;23.372;2022-07-31T13:10:10;94882.56;;;29.35;76.75
8075;BME280;4080;42.676;23.372;2022-07-31T13:12:36;94856.59;;;29.06;76.45
8075;BME280;4080;42.676;23.372;2022-07-31T13:15:03;94883.00;;;29.23;78.52
8075;BME280;4080;42.676;23.372;2022-07-31T13:17:30;94880.66;;;29.25;77.72
8075;BME280;4080;42.676;23.372;2022-07-31T13:19:57;94881.81;;;29.21;78.77
8075;BME280;4080;42.676;23.372;2022-07-31T13:22:24;94871.75;;;29.21;79.94
8075;BME280;4080;42.676;23.372;2022-07-31T13:24:52;94880.69;;;29.15;80.36